sensor_id;sensor_type;location;lat;lon;timestamp;pressure;altitude;pressure_sealevel;temperature;humidity
10948;BME280;5526;42.070;24.752;2023-02-26T00:01:27;97940.03;;;12.06;77.98
10948;BME280;5526;42.070;24.752;2023-02-26T00:03:56;97927.53;;;12.12;77.62
10948;BME280;5526;42.070;24.752;2023-02-26T00:06:24;97936.97;;;11.99;78.59
10948;BME280;5526;42.070;24.752;2023-02-26T00:08:54;97943.78;;;12.00;79.07
10948;BME280;5526;42.070;24.752;2023-02-26T00:11:21;97932.88;;;12.07;78.79
10948;BME280;5526;42.070;24.752;2023-02-26T00:13:49;97922.25;;;12.12;78.90
10948;BME280;5526;42.070;24.752;2023-02-26T00:16:26;97944.13;;;12.12;79.34
10948;BME280;5526;42.070;24.752;2023-02-26T00:18:53;97934.19;;;12.09;79.43
10948;BME280;5526;42.070;24.752;2023-02-26T00:21:22;97957.59;;;12.11;79.88
10948;BME280;5526;42.070;24.752;2023-02-26T00:23:50;97955.47;;;12.13;79.53
10948;BME280;5526;42.070;24.752;2023-02-26T00:26:19;97947.09;;;12.24;78.13
10948;BME280;5526;42.070;24.752;2023-02-26T00:28:47;97952.97;;;12.21;78.88
10948;BME280;5526;42.070;24.752;2023-02-26T00:31:16;97943.78;;;12.19;78.58
10948;BME280;5526;42.070;24.752;2023-02-26T00:33:45;97952.09;;;12.26;78.69
10948;BME280;5526;42.070;24.752;2023-02-26T00:36:20;97958.84;;;12.32;78.44
10948;BME280;5526;42.070;24.752;2023-02-26T00:38:56;97941.38;;;12.36;76.58
10948;BME280;5526;42.070;24.752;2023-02-26T00:41:29;97953.38;;;12.42;76.87
10948;BME280;5526;42.070;24.752;2023-02-26T00:43:57;97960.44;;;12.46;76.92
10948;BME280;5526;42.070;24.752;2023-02-26T00:46:28;97938.25;;;12.47;76.86
10948;BME280;5526;42.070;24.752;2023-02-26T00:49:07;97947.06;;;12.43;77.23
10948;BME280;5526;42.070;24.752;2023-02-26T00:51:43;97926.44;;;12.45;74.92
10948;BME280;5526;42.070;24.752;2023-02-26T00:54:17;97929.38;;;12.57;74.39
10948;BME280;5526;42.070;24.752;2023-02-26T00:56:47;97933.00;;;12.61;74.32
10948;BME280;5526;42.070;24.752;2023-02-26T00:59:14;97912.56;;;12.53;73.58
10948;BME280;5526;42.070;24.752;2023-02-26T01:01:41;97909.66;;;12.95;67.12
10948;BME280;5526;42.070;24.752;2023-02-26T01:04:10;97904.13;;;13.68;61.37
10948;BME280;5526;42.070;24.752;2023-02-26T01:06:41;97904.75;;;14.31;56.78
10948;BME280;5526;42.070;24.752;2023-02-26T01:09:16;97909.00;;;14.79;53.15
10948;BME280;5526;42.070;24.752;2023-02-26T01:11:47;97903.34;;;15.11;52.88
10948;BME280;5526;42.070;24.752;2023-02-26T01:14:14;97909.44;;;15.29;52.89
10948;BME280;5526;42.070;24.752;2023-02-26T01:16:48;97909.53;;;15.46;50.37
10948;BME280;5526;42.070;24.752;2023-02-26T01:19:23;97911.38;;;15.62;49.60
10948;BME280;5526;42.070;24.752;2023-02-26T01:21:58;97911.22;;;15.76;48.44
10948;BME280;5526;42.070;24.752;2023-02-26T01:24:29;97916.38;;;15.89;48.21
10948;BME280;5526;42.070;24.752;2023-02-26T01:26:58;97912.00;;;16.02;47.76
10948;BME280;5526;42.070;24.752;2023-02-26T01:29:25;97921.97;;;16.22;47.15
10948;BME280;5526;42.070;24.752;2023-02-26T01:31:58;97917.72;;;16.29;45.48
10948;BME280;5526;42.070;24.752;2023-02-26T01:34:33;97934.41;;;16.47;45.02
10948;BME280;5526;42.070;24.752;2023-02-26T01:37:05;97935.03;;;16.52;45.00
10948;BME280;5526;42.070;24.752;2023-02-26T01:39:39;97928.91;;;16.60;44.32
10948;BME280;5526;42.070;24.752;2023-02-26T01:42:14;97929.69;;;16.61;44.47
10948;BME280;5526;42.070;24.752;2023-02-26T01:44:54;97935.81;;;16.61;43.83
10948;BME280;5526;42.070;24.752;2023-02-26T01:47:25;97930.50;;;16.61;44.17
10948;BME280;5526;42.070;24.752;2023-02-26T01:49:55;97935.94;;;16.65;43.64
10948;BME280;5526;42.070;24.752;2023-02-26T01:55:28;97937.00;;;15.75;51.11
10948;BME280;5526;42.070;24.752;2023-02-26T01:58:00;97941.56;;;15.27;53.29
10948;BME280;5526;42.070;24.752;2023-02-26T02:00:29;97939.09;;;15.31;51.88
10948;BME280;5526;42.070;24.752;2023-02-26T02:02:56;97913.84;;;15.33;50.91
10948;BME280;5526;42.070;24.752;2023-02-26T02:05:27;97928.88;;;15.55;50.36
10948;BME280;5526;42.070;24.752;2023-02-26T02:07:56;97914.69;;;15.59;49.29
10948;BME280;5526;42.070;24.752;2023-02-26T02:10:24;97880.94;;;15.77;48.17
10948;BME280;5526;42.070;24.752;2023-02-26T02:13:01;97896.88;;;16.02;45.20
10948;BME280;5526;42.070;24.752;2023-02-26T02:15:35;97885.41;;;16.27;45.23
10948;BME280;5526;42.070;24.752;2023-02-26T02:18:11;97889.91;;;16.35;43.70
10948;BME280;5526;42.070;24.752;2023-02-26T02:23:42;97909.91;;;16.33;44.08
10948;BME280;5526;42.070;24.752;2023-02-26T02:32:25;97914.59;;;16.82;41.85
10948;BME280;5526;42.070;24.752;2023-02-26T02:34:57;97897.53;;;16.91;41.95
10948;BME280;5526;42.070;24.752;2023-02-26T02:37:35;97903.44;;;16.97;41.72
10948;BME280;5526;42.070;24.752;2023-02-26T02:40:06;97902.94;;;17.03;41.43
10948;BME280;5526;42.070;24.752;2023-02-26T02:42:38;97914.31;;;17.13;40.97
10948;BME280;5526;42.070;24.752;2023-02-26T02:45:10;97916.47;;;17.19;41.55
10948;BME280;5526;42.070;24.752;2023-02-26T02:47:42;97916.91;;;17.21;41.84
10948;BME280;5526;42.070;24.752;2023-02-26T02:50:18;97927.22;;;17.23;41.38
10948;BME280;5526;42.070;24.752;2023-02-26T02:52:50;97927.38;;;17.26;41.35
10948;BME280;5526;42.070;24.752;2023-02-26T02:55:21;97923.28;;;17.29;41.58
10948;BME280;5526;42.070;24.752;2023-02-26T02:57:52;97924.84;;;17.30;40.66
10948;BME280;5526;42.070;24.752;2023-02-26T03:00:21;97922.13;;;17.38;41.12
10948;BME280;5526;42.070;24.752;2023-02-26T03:02:55;97936.69;;;17.41;40.91
10948;BME280;5526;42.070;24.752;2023-02-26T03:05:23;97935.75;;;17.37;40.52
10948;BME280;5526;42.070;24.752;2023-02-26T03:07:54;97927.44;;;17.38;41.45
10948;BME280;5526;42.070;24.752;2023-02-26T03:10:22;97928.44;;;17.05;42.51
10948;BME280;5526;42.070;24.752;2023-02-26T03:12:49;97927.03;;;16.98;42.48
10948;BME280;5526;42.070;24.752;2023-02-26T03:15:22;97920.09;;;17.06;41.67
10948;BME280;5526;42.070;24.752;2023-02-26T03:18:00;97902.69;;;16.97;43.00
10948;BME280;5526;42.070;24.752;2023-02-26T03:20:34;97904.88;;;16.86;42.10
10948;BME280;5526;42.070;24.752;2023-02-26T03:23:07;97901.03;;;17.13;40.50
10948;BME280;5526;42.070;24.752;2023-02-26T03:25:43;97892.66;;;17.23;39.18
10948;BME280;5526;42.070;24.752;2023-02-26T03:28:17;97894.47;;;17.31;40.22
10948;BME280;5526;42.070;24.752;2023-02-26T03:30:49;97884.63;;;17.31;40.33
10948;BME280;5526;42.070;24.752;2023-02-26T03:33:23;97886.19;;;17.32;41.01
10948;BME280;5526;42.070;24.752;2023-02-26T03:35:55;97906.59;;;17.20;41.50
10948;BME280;5526;42.070;24.752;2023-02-26T03:38:29;97887.09;;;16.86;43.71
10948;BME280;5526;42.070;24.752;2023-02-26T03:41:02;97890.69;;;16.82;44.30
10948;BME280;5526;42.070;24.752;2023-02-26T03:43:33;97902.28;;;16.77;44.29
10948;BME280;5526;42.070;24.752;2023-02-26T03:46:04;97885.59;;;16.68;44.81
10948;BME280;5526;42.070;24.752;2023-02-26T03:48:35;97884.66;;;16.64;44.59
10948;BME280;5526;42.070;24.752;2023-02-26T03:51:05;97894.56;;;16.55;44.65
10948;BME280;5526;42.070;24.752;2023-02-26T03:53:38;97890.97;;;16.60;44.90
10948;BME280;5526;42.070;24.752;2023-02-26T03:56:11;97886.28;;;16.57;44.42
10948;BME280;5526;42.070;24.752;2023-02-26T03:58:39;97892.53;;;16.52;45.01
10948;BME280;5526;42.070;24.752;2023-02-26T04:01:11;97887.41;;;16.47;44.88
10948;BME280;5526;42.070;24.752;2023-02-26T04:03:45;97866.09;;;16.10;47.21
10948;BME280;5526;42.070;24.752;2023-02-26T04:06:13;97894.69;;;15.87;48.65
10948;BME280;5526;42.070;24.752;2023-02-26T04:08:41;97911.56;;;15.91;49.20
10948;BME280;5526;42.070;24.752;2023-02-26T04:11:10;97901.41;;;15.76;50.88
10948;BME280;5526;42.070;24.752;2023-02-26T04:13:38;97891.72;;;15.46;52.36
10948;BME280;5526;42.070;24.752;2023-02-26T04:16:06;97864.09;;;15.30;53.05
10948;BME280;5526;42.070;24.752;2023-02-26T04:18:33;97876.38;;;15.09;54.20
10948;BME280;5526;42.070;24.752;2023-02-26T04:21:01;97879.66;;;15.06;54.68
10948;BME280;5526;42.070;24.752;2023-02-26T04:23:29;97889.91;;;14.99;54.72
10948;BME280;5526;42.070;24.752;2023-02-26T04:25:56;97898.34;;;15.01;54.85
10948;BME280;5526;42.070;24.752;2023-02-26T04:28:23;97878.06;;;14.97;55.32
10948;BME280;5526;42.070;24.752;2023-02-26T04:30:50;97871.66;;;14.89;55.46
10948;BME280;5526;42.070;24.752;2023-02-26T04:33:16;97871.19;;;14.87;56.00
10948;BME280;5526;42.070;24.752;2023-02-26T04:35:43;97867.13;;;14.81;55.99
10948;BME280;5526;42.070;24.752;2023-02-26T04:38:12;97840.00;;;14.84;56.15
10948;BME280;5526;42.070;24.752;2023-02-26T04:40:39;97840.47;;;14.78;56.65
10948;BME280;5526;42.070;24.752;2023-02-26T04:43:06;97866.19;;;14.77;56.87
10948;BME280;5526;42.070;24.752;2023-02-26T04:45:33;97869.44;;;14.74;56.96
10948;BME280;5526;42.070;24.752;2023-02-26T04:47:59;97878.44;;;14.73;56.97
10948;BME280;5526;42.070;24.752;2023-02-26T04:50:26;97874.09;;;14.69;57.26
10948;BME280;5526;42.070;24.752;2023-02-26T04:52:53;97870.31;;;14.61;57.65
10948;BME280;5526;42.070;24.752;2023-02-26T04:55:22;97866.09;;;14.60;58.02
10948;BME280;5526;42.070;24.752;2023-02-26T04:57:49;97850.31;;;14.38;59.04
10948;BME280;5526;42.070;24.752;2023-02-26T05:00:17;97855.63;;;14.16;59.91
10948;BME280;5526;42.070;24.752;2023-02-26T05:02:44;97854.31;;;14.05;60.06
10948;BME280;5526;42.070;24.752;2023-02-26T05:05:11;97859.75;;;14.09;60.56
10948;BME280;5526;42.070;24.752;2023-02-26T05:07:38;97867.22;;;14.07;60.60
10948;BME280;5526;42.070;24.752;2023-02-26T05:10:06;97860.69;;;14.04;60.82
10948;BME280;5526;42.070;24.752;2023-02-26T05:12:35;97848.84;;;14.02;60.91
10948;BME280;5526;42.070;24.752;2023-02-26T05:15:03;97867.47;;;13.97;61.50
10948;BME280;5526;42.070;24.752;2023-02-26T05:17:30;97866.50;;;13.93;61.67
10948;BME280;5526;42.070;24.752;2023-02-26T05:19:57;97872.34;;;13.59;63.19
10948;BME280;5526;42.070;24.752;2023-02-26T05:22:24;97863.16;;;13.57;63.28
10948;BME280;5526;42.070;24.752;2023-02-26T05:24:51;97870.91;;;13.53;63.88
10948;BME280;5526;42.070;24.752;2023-02-26T05:27:18;97898.91;;;13.54;64.16
10948;BME280;5526;42.070;24.752;2023-02-26T05:29:46;97876.66;;;13.55;64.48
10948;BME280;5526;42.070;24.752;2023-02-26T05:32:14;97870.78;;;13.58;64.99
10948;BME280;5526;42.070;24.752;2023-02-26T05:34:41;97877.03;;;13.62;64.85
10948;BME280;5526;42.070;24.752;2023-02-26T05:37:07;97850.72;;;13.57;65.29
10948;BME280;5526;42.070;24.752;2023-02-26T05:39:34;97868.63;;;13.60;65.25
10948;BME280;5526;42.070;24.752;2023-02-26T05:42:01;97875.59;;;13.56;65.65
10948;BME280;5526;42.070;24.752;2023-02-26T05:44:28;97873.00;;;13.65;65.11
10948;BME280;5526;42.070;24.752;2023-02-26T05:46:57;97875.22;;;13.71;65.00
10948;BME280;5526;42.070;24.752;2023-02-26T05:49:24;97875.91;;;13.77;64.65
10948;BME280;5526;42.070;24.752;2023-02-26T05:51:51;97884.03;;;13.80;63.77
10948;BME280;5526;42.070;24.752;2023-02-26T05:54:18;97894.84;;;13.92;63.39
10948;BME280;5526;42.070;24.752;2023-02-26T05:56:45;97895.81;;;13.96;63.43
10948;BME280;5526;42.070;24.752;2023-02-26T05:59:12;97907.94;;;13.97;63.67
10948;BME280;5526;42.070;24.752;2023-02-26T06:01:39;97905.88;;;13.94;64.19
10948;BME280;5526;42.070;24.752;2023-02-26T06:04:08;97908.88;;;13.79;65.31
10948;BME280;5526;42.070;24.752;2023-02-26T06:06:35;97919.97;;;13.81;66.13
10948;BME280;5526;42.070;24.752;2023-02-26T06:09:03;97932.34;;;13.94;65.67
10948;BME280;5526;42.070;24.752;2023-02-26T06:11:30;97934.38;;;13.97;65.85
10948;BME280;5526;42.070;24.752;2023-02-26T06:13:57;97941.59;;;14.05;65.96
10948;BME280;5526;42.070;24.752;2023-02-26T06:16:24;97944.91;;;14.11;65.77
10948;BME280;5526;42.070;24.752;2023-02-26T06:18:51;97940.28;;;14.16;65.70
10948;BME280;5526;42.070;24.752;2023-02-26T06:21:20;97925.84;;;14.22;65.61
10948;BME280;5526;42.070;24.752;2023-02-26T06:23:47;97931.81;;;14.28;64.62
10948;BME280;5526;42.070;24.752;2023-02-26T06:26:14;97947.75;;;14.36;65.12
10948;BME280;5526;42.070;24.752;2023-02-26T06:28:41;97926.78;;;14.48;62.85
10948;BME280;5526;42.070;24.752;2023-02-26T06:31:08;97926.56;;;14.14;64.11
10948;BME280;5526;42.070;24.752;2023-02-26T06:33:35;97928.13;;;14.15;64.75
10948;BME280;5526;42.070;24.752;2023-02-26T06:36:02;97913.72;;;14.21;64.93
10948;BME280;5526;42.070;24.752;2023-02-26T06:38:31;97919.44;;;14.37;64.02
10948;BME280;5526;42.070;24.752;2023-02-26T06:40:58;97922.59;;;14.47;63.74
10948;BME280;5526;42.070;24.752;2023-02-26T06:43:26;97940.03;;;14.48;63.69
10948;BME280;5526;42.070;24.752;2023-02-26T06:45:56;97901.41;;;14.47;64.02
10948;BME280;5526;42.070;24.752;2023-02-26T06:48:23;97935.91;;;14.34;64.14
10948;BME280;5526;42.070;24.752;2023-02-26T06:50:51;97924.41;;;14.38;64.35
10948;BME280;5526;42.070;24.752;2023-02-26T06:53:18;97926.50;;;14.50;64.16
10948;BME280;5526;42.070;24.752;2023-02-26T06:55:49;97930.41;;;14.30;64.57
10948;BME280;5526;42.070;24.752;2023-02-26T06:58:16;97922.72;;;14.42;64.17
10948;BME280;5526;42.070;24.752;2023-02-26T07:00:44;97928.41;;;14.58;63.55
10948;BME280;5526;42.070;24.752;2023-02-26T07:03:13;97927.69;;;14.74;62.53
10948;BME280;5526;42.070;24.752;2023-02-26T07:05:41;97940.22;;;14.91;60.79
10948;BME280;5526;42.070;24.752;2023-02-26T07:08:08;97934.50;;;15.06;60.23
10948;BME280;5526;42.070;24.752;2023-02-26T07:10:36;97935.97;;;15.20;59.86
10948;BME280;5526;42.070;24.752;2023-02-26T07:13:05;97951.09;;;15.28;59.42
10948;BME280;5526;42.070;24.752;2023-02-26T07:15:32;97956.13;;;15.38;58.35
10948;BME280;5526;42.070;24.752;2023-02-26T07:17:59;97945.88;;;15.54;57.24
10948;BME280;5526;42.070;24.752;2023-02-26T07:20:27;97952.59;;;15.68;56.96
10948;BME280;5526;42.070;24.752;2023-02-26T07:22:55;97963.81;;;15.82;56.18
10948;BME280;5526;42.070;24.752;2023-02-26T07:25:22;97959.94;;;15.88;56.02
10948;BME280;5526;42.070;24.752;2023-02-26T07:27:50;97954.59;;;16.05;55.11
10948;BME280;5526;42.070;24.752;2023-02-26T07:30:18;97941.03;;;16.15;54.06
10948;BME280;5526;42.070;24.752;2023-02-26T07:32:45;97941.47;;;16.26;53.43
10948;BME280;5526;42.070;24.752;2023-02-26T07:35:13;97942.25;;;16.43;53.07
10948;BME280;5526;42.070;24.752;2023-02-26T07:37:40;97952.78;;;16.69;52.22
10948;BME280;5526;42.070;24.752;2023-02-26T07:40:08;97939.91;;;16.88;51.44
10948;BME280;5526;42.070;24.752;2023-02-26T07:42:35;97934.09;;;16.94;50.23
10948;BME280;5526;42.070;24.752;2023-02-26T07:45:03;97936.66;;;17.12;50.61
10948;BME280;5526;42.070;24.752;2023-02-26T07:47:31;97935.47;;;17.30;50.31
10948;BME280;5526;42.070;24.752;2023-02-26T07:49:59;97936.81;;;17.44;49.85
10948;BME280;5526;42.070;24.752;2023-02-26T07:52:26;97946.91;;;17.59;49.62
10948;BME280;5526;42.070;24.752;2023-02-26T07:54:53;97938.78;;;17.76;49.54
10948;BME280;5526;42.070;24.752;2023-02-26T07:57:20;97930.84;;;17.88;49.51
10948;BME280;5526;42.070;24.752;2023-02-26T07:59:47;97930.72;;;18.05;49.39
10948;BME280;5526;42.070;24.752;2023-02-26T08:02:14;97937.31;;;18.20;48.93
10948;BME280;5526;42.070;24.752;2023-02-26T08:04:43;97918.44;;;18.25;47.81
10948;BME280;5526;42.070;24.752;2023-02-26T08:07:11;97926.50;;;18.37;47.28
10948;BME280;5526;42.070;24.752;2023-02-26T08:09:38;97931.34;;;18.55;47.00
10948;BME280;5526;42.070;24.752;2023-02-26T08:12:05;97938.34;;;18.72;46.31
10948;BME280;5526;42.070;24.752;2023-02-26T08:14:32;97930.59;;;18.79;46.01
10948;BME280;5526;42.070;24.752;2023-02-26T08:16:59;97911.25;;;18.70;43.36
10948;BME280;5526;42.070;24.752;2023-02-26T08:19:26;97928.06;;;18.82;43.22
10948;BME280;5526;42.070;24.752;2023-02-26T08:21:54;97924.94;;;19.04;42.64
10948;BME280;5526;42.070;24.752;2023-02-26T08:24:22;97935.59;;;19.16;42.92
10948;BME280;5526;42.070;24.752;2023-02-26T08:26:49;97942.59;;;19.21;42.87
10948;BME280;5526;42.070;24.752;2023-02-26T08:29:16;97939.72;;;19.38;42.63
10948;BME280;5526;42.070;24.752;2023-02-26T08:31:43;97928.47;;;19.44;41.93
10948;BME280;5526;42.070;24.752;2023-02-26T08:34:10;97916.91;;;19.40;41.46
10948;BME280;5526;42.070;24.752;2023-02-26T08:36:38;97910.25;;;19.46;41.12
10948;BME280;5526;42.070;24.752;2023-02-26T08:39:06;97922.44;;;19.59;41.32
10948;BME280;5526;42.070;24.752;2023-02-26T08:41:33;97929.84;;;19.78;41.41
10948;BME280;5526;42.070;24.752;2023-02-26T08:44:01;97928.84;;;19.82;41.11
10948;BME280;5526;42.070;24.752;2023-02-26T08:46:29;97905.84;;;19.66;40.61
10948;BME280;5526;42.070;24.752;2023-02-26T08:48:56;97896.69;;;19.79;40.39
10948;BME280;5526;42.070;24.752;2023-02-26T08:51:23;97902.41;;;19.93;39.87
10948;BME280;5526;42.070;24.752;2023-02-26T08:53:50;97909.09;;;19.99;40.00
10948;BME280;5526;42.070;24.752;2023-02-26T08:56:18;97905.91;;;20.09;39.92
10948;BME280;5526;42.070;24.752;2023-02-26T08:58:46;97914.19;;;20.04;39.63
10948;BME280;5526;42.070;24.752;2023-02-26T09:01:13;97907.50;;;20.10;39.47
10948;BME280;5526;42.070;24.752;2023-02-26T09:03:40;97926.63;;;20.12;39.80
10948;BME280;5526;42.070;24.752;2023-02-26T09:06:07;97925.63;;;20.32;38.99
10948;BME280;5526;42.070;24.752;2023-02-26T09:08:34;97922.06;;;20.71;38.47
10948;BME280;5526;42.070;24.752;2023-02-26T09:11:02;97919.75;;;21.01;37.72
10948;BME280;5526;42.070;24.752;2023-02-26T09:13:31;97922.50;;;21.20;37.15
10948;BME280;5526;42.070;24.752;2023-02-26T09:15:58;97933.47;;;21.49;37.31
10948;BME280;5526;42.070;24.752;2023-02-26T09:18:26;97917.06;;;21.51;37.16
10948;BME280;5526;42.070;24.752;2023-02-26T09:20:53;97926.22;;;22.03;37.34
10948;BME280;5526;42.070;24.752;2023-02-26T09:23:20;97911.94;;;22.37;35.71
10948;BME280;5526;42.070;24.752;2023-02-26T09:25:51;97902.69;;;22.54;34.71
10948;BME280;5526;42.070;24.752;2023-02-26T09:28:19;97901.91;;;22.76;34.37
10948;BME280;5526;42.070;24.752;2023-02-26T09:30:50;97903.84;;;23.01;33.68
10948;BME280;5526;42.070;24.752;2023-02-26T09:33:17;97897.97;;;23.18;33.97
10948;BME280;5526;42.070;24.752;2023-02-26T09:35:46;97900.38;;;23.23;33.10
10948;BME280;5526;42.070;24.752;2023-02-26T09:38:14;97893.94;;;23.57;33.00
10948;BME280;5526;42.070;24.752;2023-02-26T09:40:45;97888.41;;;23.76;32.52
10948;BME280;5526;42.070;24.752;2023-02-26T09:43:46;97871.13;;;23.44;32.11
10948;BME280;5526;42.070;24.752;2023-02-26T09:46:25;97885.47;;;23.55;30.80
10948;BME280;5526;42.070;24.752;2023-02-26T09:49:05;97903.19;;;23.89;31.52
10948;BME280;5526;42.070;24.752;2023-02-26T09:51:35;97905.59;;;24.31;31.48
10948;BME280;5526;42.070;24.752;2023-02-26T09:54:09;97882.25;;;24.42;30.60
10948;BME280;5526;42.070;24.752;2023-02-26T09:56:38;97892.03;;;23.91;30.32
10948;BME280;5526;42.070;24.752;2023-02-26T09:59:08;97899.50;;;24.37;30.82
10948;BME280;5526;42.070;24.752;2023-02-26T10:01:39;97904.78;;;24.64;30.45
10948;BME280;5526;42.070;24.752;2023-02-26T10:04:17;97913.75;;;24.41;30.32
10948;BME280;5526;42.070;24.752;2023-02-26T10:06:58;97873.47;;;23.79;30.32
10948;BME280;5526;42.070;24.752;2023-02-26T10:09:36;97899.34;;;24.23;30.66
10948;BME280;5526;42.070;24.752;2023-02-26T10:12:12;97885.88;;;24.60;30.49
10948;BME280;5526;42.070;24.752;2023-02-26T10:14:43;97886.03;;;24.78;30.22
10948;BME280;5526;42.070;24.752;2023-02-26T10:17:19;97888.56;;;25.04;29.93
10948;BME280;5526;42.070;24.752;2023-02-26T10:19:51;97881.63;;;25.03;30.02
10948;BME280;5526;42.070;24.752;2023-02-26T10:22:24;97899.31;;;25.04;29.76
10948;BME280;5526;42.070;24.752;2023-02-26T10:24:58;97902.94;;;24.75;30.12
10948;BME280;5526;42.070;24.752;2023-02-26T10:27:39;97889.97;;;24.07;29.99
10948;BME280;5526;42.070;24.752;2023-02-26T10:30:13;97891.91;;;24.10;30.92
10948;BME280;5526;42.070;24.752;2023-02-26T10:32:53;97887.06;;;24.26;30.67
10948;BME280;5526;42.070;24.752;2023-02-26T10:35:26;97881.75;;;24.29;30.26
10948;BME280;5526;42.070;24.752;2023-02-26T10:37:56;97882.91;;;23.95;30.33
10948;BME280;5526;42.070;24.752;2023-02-26T10:40:30;97863.97;;;23.55;30.62
10948;BME280;5526;42.070;24.752;2023-02-26T10:43:04;97857.75;;;23.77;30.55
10948;BME280;5526;42.070;24.752;2023-02-26T10:45:46;97864.00;;;23.29;30.96
10948;BME280;5526;42.070;24.752;2023-02-26T10:48:38;97864.47;;;23.35;31.04
10948;BME280;5526;42.070;24.752;2023-02-26T10:51:12;97860.34;;;23.70;30.26
10948;BME280;5526;42.070;24.752;2023-02-26T10:53:42;97860.25;;;23.63;30.27
10948;BME280;5526;42.070;24.752;2023-02-26T10:56:12;97866.41;;;23.93;30.23
10948;BME280;5526;42.070;24.752;2023-02-26T10:58:41;97860.97;;;24.26;30.39
10948;BME280;5526;42.070;24.752;2023-02-26T11:01:15;97858.63;;;24.25;29.63
10948;BME280;5526;42.070;24.752;2023-02-26T11:03:46;97841.59;;;24.07;29.18
10948;BME280;5526;42.070;24.752;2023-02-26T11:06:18;97838.75;;;24.33;29.59
10948;BME280;5526;42.070;24.752;2023-02-26T11:08:49;97850.66;;;24.32;29.87
10948;BME280;5526;42.070;24.752;2023-02-26T11:11:40;97846.38;;;24.27;28.79
10948;BME280;5526;42.070;24.752;2023-02-26T11:14:08;97847.25;;;23.98;29.59
10948;BME280;5526;42.070;24.752;2023-02-26T11:16:42;97845.03;;;23.74;29.68
10948;BME280;5526;42.070;24.752;2023-02-26T11:19:14;97836.06;;;23.63;30.12
10948;BME280;5526;42.070;24.752;2023-02-26T11:21:43;97838.13;;;23.44;30.09
10948;BME280;5526;42.070;24.752;2023-02-26T11:24:16;97835.50;;;23.47;30.00
10948;BME280;5526;42.070;24.752;2023-02-26T11:26:48;97821.56;;;23.38;29.77
10948;BME280;5526;42.070;24.752;2023-02-26T11:29:19;97822.75;;;23.15;30.70
10948;BME280;5526;42.070;24.752;2023-02-26T11:31:47;97796.50;;;23.01;31.06
10948;BME280;5526;42.070;24.752;2023-02-26T11:34:22;97799.44;;;22.93;31.15
10948;BME280;5526;42.070;24.752;2023-02-26T11:36:49;97823.50;;;22.86;31.46
10948;BME280;5526;42.070;24.752;2023-02-26T11:39:21;97824.78;;;22.69;31.11
10948;BME280;5526;42.070;24.752;2023-02-26T11:41:51;97834.81;;;22.72;31.25
10948;BME280;5526;42.070;24.752;2023-02-26T11:44:20;97836.75;;;22.75;31.10
10948;BME280;5526;42.070;24.752;2023-02-26T11:46:53;97827.34;;;22.62;31.29
10948;BME280;5526;42.070;24.752;2023-02-26T11:49:26;97819.50;;;22.50;31.58
10948;BME280;5526;42.070;24.752;2023-02-26T11:52:05;97796.00;;;22.44;31.58
10948;BME280;5526;42.070;24.752;2023-02-26T11:54:39;97779.75;;;22.11;32.26
10948;BME280;5526;42.070;24.752;2023-02-26T11:57:15;97775.78;;;22.24;31.81
10948;BME280;5526;42.070;24.752;2023-02-26T11:59:47;97786.91;;;22.48;31.79
10948;BME280;5526;42.070;24.752;2023-02-26T12:02:17;97800.88;;;22.38;30.74
10948;BME280;5526;42.070;24.752;2023-02-26T12:04:48;97807.03;;;22.61;31.09
10948;BME280;5526;42.070;24.752;2023-02-26T12:07:17;97802.25;;;22.74;31.34
10948;BME280;5526;42.070;24.752;2023-02-26T12:09:45;97798.22;;;22.87;30.99
10948;BME280;5526;42.070;24.752;2023-02-26T12:12:24;97793.63;;;22.61;31.25
10948;BME280;5526;42.070;24.752;2023-02-26T12:15:10;97802.50;;;22.65;31.42
10948;BME280;5526;42.070;24.752;2023-02-26T12:17:53;97801.03;;;22.97;30.17
10948;BME280;5526;42.070;24.752;2023-02-26T12:20:26;97803.47;;;23.06;30.20
10948;BME280;5526;42.070;24.752;2023-02-26T12:23:09;97806.56;;;23.08;29.75
10948;BME280;5526;42.070;24.752;2023-02-26T12:26:00;97811.66;;;23.16;29.61
10948;BME280;5526;42.070;24.752;2023-02-26T12:28:42;97797.06;;;23.14;29.54
10948;BME280;5526;42.070;24.752;2023-02-26T12:31:25;97789.00;;;23.14;29.97
10948;BME280;5526;42.070;24.752;2023-02-26T12:34:02;97794.75;;;23.12;29.77
10948;BME280;5526;42.070;24.752;2023-02-26T12:36:50;97801.47;;;22.99;30.42
10948;BME280;5526;42.070;24.752;2023-02-26T12:39:31;97799.44;;;22.93;30.35
10948;BME280;5526;42.070;24.752;2023-02-26T12:42:12;97815.09;;;22.87;30.38
10948;BME280;5526;42.070;24.752;2023-02-26T12:45:07;97808.44;;;22.78;30.31
10948;BME280;5526;42.070;24.752;2023-02-26T12:47:48;97799.72;;;22.58;30.77
10948;BME280;5526;42.070;24.752;2023-02-26T12:50:27;97785.47;;;22.54;30.52
10948;BME280;5526;42.070;24.752;2023-02-26T12:53:19;97797.84;;;22.40;30.73
10948;BME280;5526;42.070;24.752;2023-02-26T12:55:59;97803.94;;;22.37;31.09
10948;BME280;5526;42.070;24.752;2023-02-26T12:58:47;97806.78;;;22.25;31.11
10948;BME280;5526;42.070;24.752;2023-02-26T13:10:21;97816.97;;;21.55;32.00
10948;BME280;5526;42.070;24.752;2023-02-26T13:13:01;97844.94;;;21.58;32.41
10948;BME280;5526;42.070;24.752;2023-02-26T13:15:45;97843.34;;;21.72;32.28
10948;BME280;5526;42.070;24.752;2023-02-26T13:18:20;97839.88;;;21.72;32.31
10948;BME280;5526;42.070;24.752;2023-02-26T13:20:54;97838.91;;;21.80;32.42
10948;BME280;5526;42.070;24.752;2023-02-26T13:23:30;97829.50;;;21.70;32.30
10948;BME280;5526;42.070;24.752;2023-02-26T13:26:04;97859.41;;;21.72;31.96
10948;BME280;5526;42.070;24.752;2023-02-26T13:28:38;97857.34;;;21.66;32.29
10948;BME280;5526;42.070;24.752;2023-02-26T13:31:09;97848.53;;;21.65;32.60
10948;BME280;5526;42.070;24.752;2023-02-26T13:33:38;97862.63;;;22.00;32.22
10948;BME280;5526;42.070;24.752;2023-02-26T13:36:07;97862.19;;;21.60;32.66
10948;BME280;5526;42.070;24.752;2023-02-26T13:38:43;97863.56;;;21.16;33.52
10948;BME280;5526;42.070;24.752;2023-02-26T13:41:19;97864.91;;;21.26;33.90